Time;durP1;ratioP1;P1;durP2;ratioP2;P2;SDS_P1;SDS_P2;PMS_P1;PMS_P2;Temp;Humidity;BMP_temperature;BMP_pressure;BME280_temperature;BME280_humidity;BME280_pressure;Samples;Min_cycle;Max_cycle;Signal;HPM_P1;HPM_P2
2021/03/02 00:00:50;;;;;;;10.18;8.73;;;4.50;65.60;;;;;;5052602;28;20241;-82
2021/03/02 00:03:17;;;;;;;10.38;7.65;;;4.40;65.80;;;;;;5050355;28;20200;-82
2021/03/02 00:05:46;;;;;;;14.52;10.35;;;4.40;67.00;;;;;;5052303;28;20254;-82
2021/03/02 00:08:13;;;;;;;12.20;9.18;;;4.50;67.70;;;;;;5039631;28;20308;-82
2021/03/02 00:10:42;;;;;;;15.05;10.10;;;4.40;67.80;;;;;;5037772;28;20235;-82
2021/03/02 00:13:10;;;;;;;12.75;8.30;;;4.30;67.30;;;;;;5062055;28;20202;-82
2021/03/02 00:15:36;;;;;;;10.38;7.68;;;4.30;67.80;;;;;;5056446;28;20203;-82
2021/03/02 00:18:03;;;;;;;13.77;8.82;;;4.20;66.90;;;;;;5043029;28;20230;-82
2021/03/02 00:20:34;;;;;;;12.10;9.48;;;4.10;66.70;;;;;;5072895;28;20213;-82
2021/03/02 00:23:03;;;;;;;13.70;8.68;;;4.10;66.80;;;;;;5059120;28;20250;-82
2021/03/02 00:25:32;;;;;;;12.85;9.20;;;4.10;67.10;;;;;;5035520;28;20197;-82
2021/03/02 00:28:01;;;;;;;12.05;8.43;;;4.10;67.30;;;;;;5047309;28;20254;-82
2021/03/02 00:30:29;;;;;;;11.15;8.25;;;4.10;67.10;;;;;;5052267;28;20212;-82
2021/03/02 00:32:56;;;;;;;12.43;8.82;;;4.00;67.40;;;;;;5035368;28;20239;-82
2021/03/02 00:35:22;;;;;;;10.75;8.88;;;4.00;67.80;;;;;;5032141;28;20228;-82
2021/03/02 00:37:49;;;;;;;8.02;7.22;;;4.10;67.90;;;;;;5046776;28;20220;-82
2021/03/02 00:40:16;;;;;;;17.42;9.13;;;4.10;68.20;;;;;;5044942;28;20213;-82
2021/03/02 00:42:44;;;;;;;13.25;9.23;;;4.10;67.90;;;;;;5031423;28;20251;-82
2021/03/02 00:45:11;;;;;;;12.52;9.98;;;4.30;68.40;;;;;;5037151;28;20275;-82
2021/03/02 00:47:38;;;;;;;11.68;9.10;;;4.20;68.00;;;;;;5049924;28;20244;-82
2021/03/02 00:50:05;;;;;;;14.90;8.95;;;4.30;68.60;;;;;;5050910;28;20204;-82
2021/03/02 00:52:32;;;;;;;12.50;9.30;;;4.20;68.80;;;;;;5032830;28;20228;-82
2021/03/02 00:54:58;;;;;;;17.00;10.57;;;4.30;69.60;;;;;;5031691;28;20303;-82
2021/03/02 00:57:25;;;;;;;10.95;9.40;;;4.20;68.60;;;;;;5049801;28;20290;-82
2021/03/02 00:59:52;;;;;;;13.55;10.40;;;4.20;68.70;;;;;;5050208;28;20563;-82
2021/03/02 01:02:18;;;;;;;9.80;8.80;;;4.10;68.70;;;;;;5033412;28;20232;-82
2021/03/02 01:04:45;;;;;;;15.55;10.15;;;4.20;70.00;;;;;;5030975;28;20606;-82
2021/03/02 01:07:11;;;;;;;13.60;10.00;;;4.20;70.90;;;;;;5036988;28;20224;-82
2021/03/02 01:09:37;;;;;;;12.70;10.77;;;4.10;71.60;;;;;;5035242;28;20283;-82
2021/03/02 01:12:04;;;;;;;13.20;9.48;;;4.10;70.50;;;;;;5047080;28;20221;-82
2021/03/02 01:14:31;;;;;;;13.15;9.25;;;4.00;69.10;;;;;;5033454;28;20678;-82
2021/03/02 01:16:58;;;;;;;11.23;9.18;;;3.90;69.00;;;;;;5050884;28;20258;-82
2021/03/02 01:19:25;;;;;;;13.55;9.80;;;3.90;69.30;;;;;;5050240;28;20247;-83
2021/03/02 01:21:51;;;;;;;13.75;10.30;;;4.00;69.20;;;;;;5051201;28;20215;-82
2021/03/02 01:24:18;;;;;;;12.00;9.35;;;4.00;70.10;;;;;;5035026;28;20223;-82
2021/03/02 01:26:44;;;;;;;15.95;11.50;;;4.00;69.50;;;;;;5032284;28;20248;-82
2021/03/02 01:29:11;;;;;;;13.82;8.23;;;3.90;69.30;;;;;;5031304;28;20745;-82
2021/03/02 01:31:37;;;;;;;12.88;8.90;;;3.80;69.40;;;;;;5041710;28;20297;-82
2021/03/02 01:34:04;;;;;;;13.13;9.25;;;3.70;69.80;;;;;;5043622;28;20215;-83
2021/03/02 01:36:31;;;;;;;11.60;8.95;;;3.70;69.80;;;;;;5035665;28;20196;-82
2021/03/02 01:38:57;;;;;;;10.45;9.30;;;3.70;70.00;;;;;;5050520;28;20239;-82
2021/03/02 01:41:24;;;;;;;10.35;8.65;;;3.60;70.00;;;;;;5039967;28;20661;-82
2021/03/02 01:43:50;;;;;;;15.18;9.50;;;3.70;70.70;;;;;;5049783;28;20235;-82
2021/03/02 01:46:16;;;;;;;11.18;8.95;;;3.60;71.90;;;;;;5036245;28;20319;-81
2021/03/02 01:48:44;;;;;;;13.43;9.10;;;3.50;73.10;;;;;;5029986;28;20240;-82
2021/03/02 01:51:11;;;;;;;14.27;9.50;;;3.60;73.60;;;;;;5044049;28;20282;-82
2021/03/02 01:53:38;;;;;;;14.68;9.18;;;3.50;72.10;;;;;;5049448;28;20325;-82
2021/03/02 01:56:05;;;;;;;9.63;8.15;;;3.50;72.00;;;;;;5040211;28;20196;-81
2021/03/02 01:58:32;;;;;;;10.30;8.40;;;3.40;72.20;;;;;;5037797;28;20662;-82
2021/03/02 02:01:01;;;;;;;12.00;9.98;;;3.40;72.20;;;;;;5045294;28;20237;-82
2021/03/02 02:03:39;;;;;;;12.68;9.02;;;3.50;73.40;;;;;;5030996;28;20270;-83
2021/03/02 02:06:09;;;;;;;10.10;9.07;;;3.50;72.60;;;;;;5046402;28;20250;-82
2021/03/02 02:08:50;;;;;;;9.75;7.88;;;3.50;72.00;;;;;;5044072;28;20203;-82
2021/03/02 02:11:31;;;;;;;10.43;8.13;;;3.50;71.60;;;;;;5051632;28;20200;-82
2021/03/02 02:14:07;;;;;;;13.68;8.45;;;3.40;71.80;;;;;;5054518;28;20290;-81
2021/03/02 02:16:38;;;;;;;11.75;9.18;;;3.40;72.00;;;;;;5048027;28;20198;-82
2021/03/02 02:19:18;;;;;;;12.68;8.88;;;3.30;72.90;;;;;;5047020;28;20201;-82
2021/03/02 02:21:59;;;;;;;11.70;9.98;;;3.40;72.50;;;;;;5035525;28;20193;-82
2021/03/02 02:24:34;;;;;;;10.95;8.85;;;3.40;72.60;;;;;;5059361;28;20200;-82
2021/03/02 02:27:02;;;;;;;12.48;9.00;;;3.40;72.50;;;;;;5043264;28;20212;-82
2021/03/02 02:29:37;;;;;;;16.50;9.93;;;3.50;73.10;;;;;;5030577;28;20674;-82
2021/03/02 02:32:06;;;;;;;14.10;9.43;;;3.50;72.90;;;;;;5054596;28;20415;-82
2021/03/02 02:34:36;;;;;;;12.90;9.57;;;3.40;72.80;;;;;;5049857;28;20216;-82
2021/03/02 02:37:05;;;;;;;13.27;9.57;;;3.40;72.70;;;;;;5037767;28;20196;-82
2021/03/02 02:39:34;;;;;;;13.48;10.10;;;3.50;72.90;;;;;;5035027;28;20196;-82
2021/03/02 02:42:05;;;;;;;12.50;9.45;;;3.50;72.70;;;;;;5050241;28;20222;-82
2021/03/02 02:44:34;;;;;;;10.18;9.02;;;3.40;72.80;;;;;;5038790;28;20653;-82
2021/03/02 02:47:02;;;;;;;15.20;9.93;;;3.50;73.00;;;;;;5038371;28;20580;-82
2021/03/02 02:49:30;;;;;;;12.52;9.25;;;3.50;72.80;;;;;;5044089;28;20358;-81
2021/03/02 02:51:58;;;;;;;12.20;9.50;;;3.50;72.90;;;;;;5038307;28;20214;-82
2021/03/02 02:54:26;;;;;;;18.40;9.43;;;3.50;73.00;;;;;;5037449;28;20570;-83
2021/03/02 02:56:54;;;;;;;13.68;10.98;;;3.50;73.40;;;;;;5048591;28;20577;-82
2021/03/02 02:59:24;;;;;;;10.85;9.23;;;3.50;73.30;;;;;;5041083;28;20196;-82
2021/03/02 03:01:55;;;;;;;14.13;10.60;;;3.40;72.50;;;;;;5030102;28;20204;-81
2021/03/02 03:04:28;;;;;;;12.55;9.65;;;3.40;72.80;;;;;;5036499;28;20196;-81
2021/03/02 03:06:58;;;;;;;13.10;9.57;;;3.30;72.50;;;;;;5030215;28;20267;-81
2021/03/02 03:09:27;;;;;;;11.93;9.60;;;3.30;73.00;;;;;;5029838;28;20203;-82
2021/03/02 03:12:00;;;;;;;11.32;9.13;;;3.40;73.40;;;;;;5042603;28;20747;-82
2021/03/02 03:14:30;;;;;;;13.32;10.05;;;3.30;73.20;;;;;;5047124;28;20679;-81
2021/03/02 03:16:59;;;;;;;14.48;10.48;;;3.50;73.70;;;;;;5049973;28;20199;-82
2021/03/02 03:19:29;;;;;;;10.82;9.65;;;3.60;75.20;;;;;;5035678;28;20212;-82
2021/03/02 03:21:56;;;;;;;14.98;9.07;;;3.60;74.80;;;;;;5043349;28;20223;-82
2021/03/02 03:24:23;;;;;;;18.98;11.35;;;3.70;75.00;;;;;;5044185;28;20208;-82
2021/03/02 03:26:52;;;;;;;11.48;8.77;;;3.70;73.80;;;;;;5041215;28;20628;-82
2021/03/02 03:29:20;;;;;;;9.25;8.30;;;3.70;73.80;;;;;;5053304;28;20204;-82
2021/03/02 03:31:48;;;;;;;14.75;9.82;;;3.70;73.70;;;;;;5047785;28;20279;-82
2021/03/02 03:34:16;;;;;;;11.60;9.20;;;3.60;76.40;;;;;;5033383;28;20659;-82
2021/03/02 03:36:44;;;;;;;10.77;9.00;;;3.70;76.50;;;;;;5048331;28;20200;-82
2021/03/02 03:39:10;;;;;;;16.30;10.88;;;3.60;75.00;;;;;;5049926;28;20565;-82
2021/03/02 03:41:37;;;;;;;13.15;9.75;;;3.70;74.80;;;;;;5033530;28;20227;-82
2021/03/02 03:44:04;;;;;;;11.50;9.90;;;3.60;74.40;;;;;;5041579;28;20746;-82
2021/03/02 03:46:30;;;;;;;11.18;9.43;;;3.60;74.40;;;;;;5052786;28;20623;-82
2021/03/02 03:48:58;;;;;;;13.73;10.05;;;3.70;74.20;;;;;;5051115;28;20559;-82
2021/03/02 03:51:27;;;;;;;12.77;10.40;;;3.70;74.40;;;;;;5049632;28;20677;-82
2021/03/02 03:53:54;;;;;;;12.50;9.13;;;3.60;73.80;;;;;;5031790;28;20201;-82
2021/03/02 03:56:22;;;;;;;10.85;8.38;;;3.60;73.80;;;;;;5047263;28;20200;-82
2021/03/02 03:58:50;;;;;;;11.45;9.02;;;3.40;73.60;;;;;;5051657;28;20205;-81
2021/03/02 04:01:18;;;;;;;12.65;8.98;;;3.50;74.30;;;;;;5053244;28;20208;-82
2021/03/02 04:03:47;;;;;;;12.50;9.38;;;3.50;74.70;;;;;;5037265;28;20638;-82
2021/03/02 04:06:15;;;;;;;13.10;9.20;;;3.40;73.90;;;;;;5035041;28;20208;-82
2021/03/02 04:08:42;;;;;;;12.57;9.15;;;3.40;74.10;;;;;;5053219;28;20227;-82
2021/03/02 04:11:08;;;;;;;11.25;9.05;;;3.30;74.10;;;;;;5051955;28;20242;-82
2021/03/02 04:13:35;;;;;;;13.90;9.23;;;3.30;74.00;;;;;;5032827;28;20209;-82
2021/03/02 04:16:01;;;;;;;13.18;10.23;;;3.40;74.10;;;;;;5034598;28;20204;-81
2021/03/02 04:18:28;;;;;;;12.13;9.48;;;3.40;75.30;;;;;;5031838;28;20193;-81
2021/03/02 04:20:55;;;;;;;11.23;9.15;;;3.40;76.50;;;;;;5032908;28;20205;-82
2021/03/02 04:23:22;;;;;;;10.88;9.18;;;3.30;77.10;;;;;;5069255;28;20322;-81
2021/03/02 04:25:48;;;;;;;13.23;10.18;;;3.20;78.10;;;;;;5067971;28;20382;-81
2021/03/02 04:28:15;;;;;;;13.35;9.45;;;3.10;76.40;;;;;;5050579;28;20251;-82
2021/03/02 04:30:41;;;;;;;13.70;9.63;;;3.10;76.00;;;;;;5039741;28;20260;-81
2021/03/02 04:33:08;;;;;;;11.48;9.75;;;3.00;75.90;;;;;;5033274;28;20281;-81
2021/03/02 04:35:35;;;;;;;10.07;8.15;;;3.00;75.50;;;;;;5051047;28;20250;-81
2021/03/02 04:38:02;;;;;;;14.35;8.85;;;3.00;75.10;;;;;;5052414;28;20219;-81
2021/03/02 04:40:29;;;;;;;12.02;9.60;;;3.10;75.40;;;;;;5039697;28;20670;-82
2021/03/02 04:42:55;;;;;;;13.00;11.40;;;3.00;76.00;;;;;;5044731;28;20207;-81
2021/03/02 04:45:22;;;;;;;12.35;8.93;;;2.90;78.00;;;;;;5033050;28;20657;-81
2021/03/02 04:47:48;;;;;;;10.52;8.88;;;3.00;78.30;;;;;;5032768;28;20588;-82
2021/03/02 04:50:15;;;;;;;13.88;9.32;;;2.90;77.00;;;;;;5044458;28;20211;-82
2021/03/02 04:52:42;;;;;;;11.55;9.60;;;2.90;76.70;;;;;;5044376;28;20625;-82
2021/03/02 04:55:10;;;;;;;13.93;9.75;;;2.90;76.60;;;;;;5033543;28;20284;-82
2021/03/02 04:57:37;;;;;;;12.80;10.10;;;2.90;76.40;;;;;;5032233;28;20267;-82
2021/03/02 05:00:05;;;;;;;13.38;9.55;;;2.90;76.40;;;;;;5035999;28;20223;-82
2021/03/02 05:02:32;;;;;;;13.68;10.07;;;3.00;76.70;;;;;;5051114;28;20211;-81
2021/03/02 05:04:58;;;;;;;11.93;9.55;;;3.00;76.40;;;;;;5048891;28;20243;-82
2021/03/02 05:07:24;;;;;;;11.13;9.40;;;3.00;76.20;;;;;;5042846;28;20588;-82
2021/03/02 05:09:51;;;;;;;13.95;11.00;;;2.90;76.30;;;;;;5042303;28;20242;-82
2021/03/02 05:12:17;;;;;;;12.38;10.30;;;2.80;76.70;;;;;;5040408;28;20211;-81
2021/03/02 05:14:45;;;;;;;12.35;11.05;;;3.00;77.40;;;;;;5031245;28;20224;-81
2021/03/02 05:17:11;;;;;;;14.57;10.63;;;3.10;77.50;;;;;;5040114;28;20627;-81
2021/03/02 05:19:38;;;;;;;13.10;10.15;;;3.00;76.70;;;;;;5049086;28;20283;-82
2021/03/02 05:22:04;;;;;;;17.27;10.85;;;3.00;77.20;;;;;;5055341;28;20231;-82
2021/03/02 05:24:30;;;;;;;15.80;10.90;;;2.90;77.20;;;;;;5070947;28;20306;-82
2021/03/02 05:26:57;;;;;;;13.02;10.85;;;3.00;77.90;;;;;;5063223;28;20251;-82
2021/03/02 05:29:23;;;;;;;15.90;11.25;;;3.00;77.60;;;;;;5041058;28;20878;-81
2021/03/02 05:31:50;;;;;;;13.75;10.60;;;3.10;77.60;;;;;;5039495;28;20238;-82
2021/03/02 05:34:17;;;;;;;16.15;11.20;;;3.10;77.20;;;;;;5030942;28;20669;-83
2021/03/02 05:36:45;;;;;;;13.80;10.50;;;3.00;77.50;;;;;;5032165;28;20208;-83
2021/03/02 05:39:13;;;;;;;13.27;10.95;;;3.00;78.00;;;;;;5057094;28;20653;-83
2021/03/02 05:41:46;;;;;;;16.02;11.57;;;3.00;78.20;;;;;;5062863;28;20759;-83
2021/03/02 05:44:17;;;;;;;15.53;12.47;;;3.00;78.10;;;;;;5058783;28;20891;-84
2021/03/02 05:46:48;;;;;;;18.75;12.05;;;3.20;78.30;;;;;;5064081;28;20709;-84
2021/03/02 05:49:19;;;;;;;15.10;10.88;;;3.10;78.90;;;;;;5063579;28;20231;-84
2021/03/02 05:51:46;;;;;;;16.50;10.68;;;3.10;80.10;;;;;;5064200;28;20664;-83
2021/03/02 05:54:17;;;;;;;11.43;10.13;;;3.10;78.90;;;;;;5059545;28;20196;-85
2021/03/02 05:56:43;;;;;;;14.48;10.65;;;3.20;78.40;;;;;;5035882;28;20201;-86
2021/03/02 05:59:10;;;;;;;13.15;10.23;;;3.20;79.20;;;;;;5041005;28;20595;-86
2021/03/02 06:01:37;;;;;;;17.33;11.13;;;3.10;77.80;;;;;;5049002;28;20295;-86
2021/03/02 06:04:04;;;;;;;15.40;10.02;;;3.10;77.10;;;;;;5032987;28;20208;-86
2021/03/02 06:06:31;;;;;;;15.93;10.75;;;3.00;76.90;;;;;;5033045;28;20232;-86
2021/03/02 06:08:58;;;;;;;14.85;12.02;;;3.00;77.30;;;;;;5046207;28;20712;-85
2021/03/02 06:11:35;;;;;;;14.10;11.55;;;3.00;77.60;;;;;;5049718;28;20573;-85
2021/03/02 06:14:20;;;;;;;17.65;11.25;;;3.00;78.20;;;;;;5049639;28;20342;-86
2021/03/02 06:16:47;;;;;;;13.20;10.60;;;2.90;77.50;;;;;;5049118;28;20192;-86
2021/03/02 06:19:14;;;;;;;15.35;11.00;;;2.90;78.10;;;;;;5040906;28;20201;-87
2021/03/02 06:21:42;;;;;;;17.85;12.82;;;2.90;78.00;;;;;;5037366;28;20198;-86
2021/03/02 06:24:09;;;;;;;15.57;10.93;;;2.90;78.30;;;;;;5052606;28;20623;-85
2021/03/02 06:26:38;;;;;;;12.02;10.73;;;2.90;78.40;;;;;;5041795;28;20231;-86
2021/03/02 06:29:13;;;;;;;16.67;11.80;;;3.00;78.10;;;;;;5030899;28;20236;-86
2021/03/02 06:31:42;;;;;;;16.83;9.88;;;3.00;78.00;;;;;;5033431;28;20697;-89
2021/03/02 06:34:11;;;;;;;14.73;10.23;;;2.90;77.70;;;;;;5029994;28;20354;-87
2021/03/02 06:36:39;;;;;;;13.85;11.63;;;3.00;77.60;;;;;;5037169;28;20200;-86
2021/03/02 06:39:24;;;;;;;13.40;11.10;;;2.90;77.30;;;;;;5051019;28;20235;-86
2021/03/02 06:41:51;;;;;;;12.52;11.00;;;2.90;77.50;;;;;;5037376;28;20674;-85
2021/03/02 06:44:18;;;;;;;16.42;13.05;;;2.90;77.60;;;;;;5030172;28;20201;-87
2021/03/02 06:46:46;;;;;;;15.15;12.50;;;3.00;77.90;;;;;;5042396;28;20196;-87
2021/03/02 06:49:12;;;;;;;20.33;14.73;;;3.10;77.90;;;;;;5049722;28;20204;-87
2021/03/02 06:51:40;;;;;;;19.42;15.68;;;3.20;78.10;;;;;;5042494;28;20196;-87
2021/03/02 06:54:10;;;;;;;23.42;15.15;;;3.20;78.10;;;;;;5032990;28;20204;-87
2021/03/02 06:56:39;;;;;;;19.30;15.10;;;3.30;78.30;;;;;;5033311;28;20732;-88
2021/03/02 06:59:14;;;;;;;19.15;14.63;;;3.40;77.90;;;;;;5038086;28;20298;-87
2021/03/02 07:01:42;;;;;;;21.92;15.55;;;3.50;77.80;;;;;;5050772;28;20598;-87
2021/03/02 07:04:10;;;;;;;22.30;13.60;;;3.50;77.60;;;;;;5049135;28;20235;-87
2021/03/02 07:06:38;;;;;;;16.38;14.32;;;3.40;77.50;;;;;;5050276;28;20196;-88
2021/03/02 07:09:06;;;;;;;18.70;13.45;;;3.70;77.80;;;;;;5036009;28;20471;-87
2021/03/02 07:11:35;;;;;;;15.95;12.43;;;3.80;77.90;;;;;;5030576;28;20200;-87
2021/03/02 07:14:04;;;;;;;16.50;12.70;;;4.40;84.50;;;;;;5043541;28;20199;-87
2021/03/02 07:16:32;;;;;;;18.98;12.55;;;5.10;82.40;;;;;;5046647;28;20208;-87
2021/03/02 07:19:02;;;;;;;15.35;11.30;;;5.50;78.90;;;;;;5030893;28;20670;-87
2021/03/02 07:21:34;;;;;;;17.08;11.25;;;6.10;75.20;;;;;;5034766;28;20197;-87
2021/03/02 07:24:04;;;;;;;19.55;13.38;;;6.30;74.20;;;;;;5035510;28;20216;-88
2021/03/02 07:26:32;;;;;;;18.73;12.63;;;6.40;72.90;;;;;;5040640;28;20634;-87
2021/03/02 07:29:02;;;;;;;18.13;11.25;;;6.30;71.30;;;;;;5051431;28;20737;-88
2021/03/02 07:31:31;;;;;;;18.88;13.48;;;6.10;71.10;;;;;;5031681;28;20223;-87
2021/03/02 07:34:00;;;;;;;15.48;11.98;;;6.20;71.80;;;;;;5032418;28;20201;-88
2021/03/02 07:36:33;;;;;;;18.63;12.48;;;6.20;72.50;;;;;;5051104;28;20196;-87
2021/03/02 07:39:14;;;;;;;15.13;12.35;;;6.30;72.60;;;;;;5045511;28;20197;-87
2021/03/02 07:41:40;;;;;;;17.52;13.95;;;6.30;72.80;;;;;;5031819;28;20255;-88
2021/03/02 07:44:08;;;;;;;18.10;13.35;;;6.30;72.80;;;;;;5038827;28;20208;-87
2021/03/02 07:46:49;;;;;;;19.30;14.13;;;6.40;72.90;;;;;;5052836;28;20200;-87
2021/03/02 07:49:36;;;;;;;18.92;12.63;;;6.40;72.60;;;;;;5043819;28;20208;-83
2021/03/02 07:52:19;;;;;;;19.73;13.45;;;6.60;73.10;;;;;;5030422;28;20258;-87
2021/03/02 07:54:46;;;;;;;20.17;13.00;;;6.60;72.70;;;;;;5042755;28;20199;-87
2021/03/02 07:57:26;;;;;;;17.75;13.13;;;6.80;72.60;;;;;;5068971;28;20203;-87
2021/03/02 08:00:35;;;;;;;17.02;12.45;;;6.90;72.50;;;;;;5050149;28;20201;-87
2021/03/02 08:03:30;;;;;;;18.20;13.27;;;6.90;72.30;;;;;;5060753;28;20200;-87
2021/03/02 08:05:59;;;;;;;14.27;11.95;;;7.00;72.00;;;;;;5042610;28;20202;-87
2021/03/02 08:08:33;;;;;;;16.42;13.35;;;7.10;72.10;;;;;;5051194;28;20220;-87
2021/03/02 08:11:02;;;;;;;15.50;12.77;;;7.20;71.70;;;;;;5063251;28;20263;-88
2021/03/02 08:13:33;;;;;;;17.40;13.07;;;7.30;72.20;;;;;;5054863;28;20259;-87
2021/03/02 08:16:00;;;;;;;19.15;12.10;;;7.40;71.30;;;;;;5054316;28;20207;-87
2021/03/02 08:18:29;;;;;;;18.40;13.48;;;7.60;70.90;;;;;;5045115;28;20238;-87
2021/03/02 08:21:11;;;;;;;20.30;11.98;;;7.70;70.80;;;;;;5034271;28;20662;-87
2021/03/02 08:23:53;;;;;;;19.45;13.57;;;7.80;70.60;;;;;;5061530;28;20208;-87
2021/03/02 08:26:21;;;;;;;19.17;12.85;;;7.90;70.20;;;;;;5051415;28;20199;-87
2021/03/02 08:29:06;;;;;;;19.02;12.18;;;8.00;69.90;;;;;;5053704;28;20247;-87
2021/03/02 08:31:33;;;;;;;13.70;11.75;;;8.10;69.60;;;;;;5046034;28;20224;-87
2021/03/02 08:34:02;;;;;;;19.00;11.57;;;8.20;69.30;;;;;;5040218;28;20205;-88
2021/03/02 08:36:39;;;;;;;16.05;12.15;;;8.20;68.80;;;;;;5041025;28;20203;-88
2021/03/02 08:39:17;;;;;;;15.25;12.40;;;8.30;68.50;;;;;;5050129;28;20208;-89
2021/03/02 08:41:57;;;;;;;15.25;11.93;;;8.40;68.40;;;;;;5063804;28;20204;-89
2021/03/02 08:44:27;;;;;;;19.00;12.02;;;8.40;67.70;;;;;;5059348;28;20211;-89
2021/03/02 08:46:56;;;;;;;14.95;12.65;;;8.50;67.90;;;;;;5062041;28;20214;-90
2021/03/02 08:49:23;;;;;;;20.48;13.90;;;8.70;67.20;;;;;;5064684;28;20211;-89
2021/03/02 08:51:58;;;;;;;20.27;13.30;;;8.90;66.90;;;;;;5057228;28;20690;-89
2021/03/02 08:54:28;;;;;;;16.75;12.73;;;8.80;66.30;;;;;;5059026;28;20208;-90
2021/03/02 08:57:02;;;;;;;18.73;13.40;;;8.80;66.10;;;;;;5050050;28;20201;-89
2021/03/02 08:59:32;;;;;;;18.63;13.57;;;8.90;66.10;;;;;;5039311;28;20205;-89
2021/03/02 09:01:59;;;;;;;18.23;12.77;;;9.00;65.70;;;;;;5049498;28;20208;-90
2021/03/02 09:04:39;;;;;;;16.10;12.80;;;9.00;65.10;;;;;;5058796;28;20241;-90
2021/03/02 09:07:09;;;;;;;15.02;13.27;;;9.10;65.40;;;;;;5058699;28;20202;-88
2021/03/02 09:09:42;;;;;;;18.45;13.52;;;9.10;64.90;;;;;;5061027;28;20220;-90
2021/03/02 09:12:15;;;;;;;16.95;13.65;;;9.30;64.80;;;;;;5043071;28;20228;-88
2021/03/02 09:14:41;;;;;;;19.63;13.18;;;9.40;65.50;;;;;;5038123;28;20246;-89
2021/03/02 09:17:15;;;;;;;17.75;12.13;;;9.50;64.70;;;;;;5052633;28;20330;-89
2021/03/02 09:19:47;;;;;;;20.60;13.45;;;9.40;64.30;;;;;;5057037;28;20206;-89
2021/03/02 09:22:24;;;;;;;19.38;14.05;;;9.60;64.30;;;;;;5061615;28;20234;-89
2021/03/02 09:24:56;;;;;;;15.77;14.05;;;9.70;64.60;;;;;;5077677;28;20740;-89
2021/03/02 09:27:31;;;;;;;16.30;13.50;;;9.90;64.50;;;;;;5037319;28;20580;-88
2021/03/02 09:30:01;;;;;;;16.00;13.27;;;9.90;63.60;;;;;;5053777;28;20211;-89
2021/03/02 09:32:56;;;;;;;17.13;14.10;;;9.80;63.10;;;;;;5058107;28;20208;-89
2021/03/02 09:35:22;;;;;;;18.38;13.48;;;10.10;62.90;;;;;;5057240;28;20626;-89
2021/03/02 09:37:57;;;;;;;15.60;13.60;;;10.30;62.90;;;;;;5058047;28;20225;-89
2021/03/02 09:40:27;;;;;;;21.33;14.02;;;10.10;62.40;;;;;;5040361;28;20627;-89
2021/03/02 09:42:55;;;;;;;18.38;12.88;;;9.80;63.70;;;;;;5038053;28;20204;-88
2021/03/02 09:45:22;;;;;;;19.53;15.47;;;10.00;62.70;;;;;;5052501;28;21110;-88
2021/03/02 09:48:01;;;;;;;17.70;14.67;;;10.30;63.30;;;;;;5057429;28;21013;-89
2021/03/02 09:50:35;;;;;;;16.90;14.43;;;10.40;62.30;;;;;;5041317;28;20622;-88
2021/03/02 09:53:13;;;;;;;19.83;15.27;;;10.30;60.90;;;;;;5043956;28;21002;-89
2021/03/02 09:55:42;;;;;;;22.10;14.60;;;10.40;62.00;;;;;;5054223;28;20679;-89
2021/03/02 09:58:13;;;;;;;20.53;15.50;;;10.50;61.60;;;;;;5056995;28;21159;-89
2021/03/02 10:00:47;;;;;;;15.50;13.60;;;10.50;61.90;;;;;;5051529;28;20997;-90
2021/03/02 10:03:16;;;;;;;18.93;13.80;;;10.70;62.10;;;;;;5037431;28;21190;-90
2021/03/02 10:05:45;;;;;;;19.53;14.53;;;10.80;61.50;;;;;;5057941;28;20629;-89
2021/03/02 10:08:36;;;;;;;17.43;13.80;;;10.90;61.80;;;;;;5055565;28;20665;-90
2021/03/02 10:11:20;;;;;;;19.97;14.73;;;10.90;61.70;;;;;;5058061;28;20606;-90
2021/03/02 10:13:51;;;;;;;17.57;14.23;;;11.00;60.60;;;;;;5053637;28;20633;-90
2021/03/02 10:16:22;;;;;;;24.07;14.27;;;11.10;60.60;;;;;;5045811;28;20626;-89
2021/03/02 10:18:57;;;;;;;15.37;13.07;;;11.00;60.00;;;;;;5057168;28;20622;-89
2021/03/02 10:21:25;;;;;;;19.83;13.87;;;11.00;60.50;;;;;;5075534;28;20621;-89
2021/03/02 10:23:57;;;;;;;18.60;14.43;;;11.10;60.40;;;;;;5074766;28;20736;-89
2021/03/02 10:26:29;;;;;;;20.50;13.67;;;11.10;60.00;;;;;;5067989;28;20639;-89
2021/03/02 10:28:56;;;;;;;20.37;14.17;;;11.10;60.80;;;;;;5056452;28;20667;-89
2021/03/02 10:31:23;;;;;;;16.83;15.03;;;11.20;60.70;;;;;;5053140;28;21233;-90
2021/03/02 10:33:50;;;;;;;17.33;14.17;;;11.30;61.20;;;;;;5066689;28;20729;-90
2021/03/02 10:36:22;;;;;;;16.40;14.13;;;11.30;61.30;;;;;;5068997;28;20648;-90
2021/03/02 10:38:49;;;;;;;24.00;14.23;;;11.30;60.80;;;;;;5069222;28;20637;-89
2021/03/02 10:41:18;;;;;;;16.43;14.07;;;11.40;60.30;;;;;;5059834;28;20622;-90
2021/03/02 10:43:45;;;;;;;15.50;13.80;;;11.40;60.50;;;;;;5059863;28;20637;-89
2021/03/02 10:46:12;;;;;;;15.67;13.57;;;11.50;61.00;;;;;;5067651;28;20633;-88
2021/03/02 10:51:41;;;;;;;18.13;13.73;;;11.60;60.30;;;;;;5036360;28;20634;-89
2021/03/02 10:54:08;;;;;;;16.53;13.50;;;11.80;60.80;;;;;;5052486;28;21083;-89
2021/03/02 10:56:36;;;;;;;21.07;13.10;;;11.80;59.90;;;;;;5071078;28;20661;-90
2021/03/02 10:59:03;;;;;;;17.80;14.30;;;11.80;59.30;;;;;;5070345;28;20617;-89
2021/03/02 11:01:30;;;;;;;16.80;12.47;;;12.00;59.80;;;;;;5058784;28;20728;-89
2021/03/02 11:03:56;;;;;;;15.83;13.17;;;12.00;59.70;;;;;;5044043;28;20622;-90
2021/03/02 11:06:25;;;;;;;19.90;13.87;;;12.10;59.70;;;;;;5069088;28;20629;-90
2021/03/02 11:08:51;;;;;;;17.57;13.47;;;12.20;60.00;;;;;;5060851;28;21279;-90
2021/03/02 11:11:19;;;;;;;18.97;14.40;;;12.20;59.30;;;;;;5062928;28;20648;-89
2021/03/02 11:13:48;;;;;;;17.43;13.40;;;12.30;59.10;;;;;;5070578;28;21044;-89
2021/03/02 11:16:15;;;;;;;18.67;14.10;;;12.30;59.30;;;;;;5067292;28;20638;-89
2021/03/02 11:18:48;;;;;;;15.33;13.30;;;12.30;59.30;;;;;;5072439;28;20613;-90
2021/03/02 11:21:19;;;;;;;14.97;13.20;;;12.30;59.20;;;;;;5068196;28;20653;-90
2021/03/02 11:23:46;;;;;;;16.43;12.63;;;12.50;59.00;;;;;;5036348;28;20635;-89
2021/03/02 11:26:12;;;;;;;18.43;13.97;;;12.60;58.10;;;;;;5042889;28;20656;-90
2021/03/02 11:28:39;;;;;;;17.33;15.40;;;12.70;58.10;;;;;;5056576;28;20681;-89
2021/03/02 11:31:12;;;;;;;18.00;14.10;;;12.80;58.60;;;;;;5039967;28;20634;-90
2021/03/02 11:33:38;;;;;;;17.87;14.27;;;12.90;58.20;;;;;;5044133;28;20629;-90
2021/03/02 11:36:05;;;;;;;21.67;15.00;;;12.90;57.90;;;;;;5056174;28;21241;-90
2021/03/02 11:38:49;;;;;;;15.30;12.90;;;12.90;57.30;;;;;;5040521;28;20612;-90
2021/03/02 11:41:16;;;;;;;20.10;14.73;;;13.00;57.20;;;;;;5054444;28;21131;-90
2021/03/02 11:43:42;;;;;;;19.13;13.77;;;13.10;57.10;;;;;;5057830;28;20619;-90
2021/03/02 11:46:10;;;;;;;16.40;12.90;;;13.10;56.90;;;;;;5060194;28;20656;-90
2021/03/02 11:48:37;;;;;;;16.30;12.73;;;13.10;56.70;;;;;;5060205;28;20756;-89
2021/03/02 11:51:03;;;;;;;15.53;12.60;;;13.10;56.50;;;;;;5060312;28;21183;-90
2021/03/02 11:53:36;;;;;;;14.40;11.57;;;13.30;56.00;;;;;;5060283;28;20649;-90
2021/03/02 11:56:03;;;;;;;15.17;11.10;;;13.20;55.00;;;;;;5058491;28;20630;-90
2021/03/02 11:58:29;;;;;;;16.80;12.80;;;13.00;54.80;;;;;;5060239;28;20622;-89
2021/03/02 12:00:56;;;;;;;18.47;11.40;;;13.00;55.50;;;;;;5059166;28;20623;-89
2021/03/02 12:03:24;;;;;;;14.83;11.53;;;13.30;55.60;;;;;;5059776;28;20619;-89
2021/03/02 12:05:53;;;;;;;16.33;11.60;;;13.30;55.30;;;;;;5059800;28;20622;-90
2021/03/02 12:08:20;;;;;;;14.97;10.43;;;13.50;55.30;;;;;;5060129;28;20646;-89
2021/03/02 12:10:49;;;;;;;11.27;9.63;;;13.50;55.00;;;;;;5058809;28;20610;-89
2021/03/02 12:13:16;;;;;;;17.50;11.50;;;13.60;54.40;;;;;;5059605;28;20618;-90
2021/03/02 12:15:43;;;;;;;14.60;11.40;;;13.60;53.90;;;;;;5056259;28;20619;-89
2021/03/02 12:18:10;;;;;;;15.43;10.60;;;13.60;53.60;;;;;;5040022;28;20617;-89
2021/03/02 12:20:37;;;;;;;20.40;11.43;;;13.70;53.70;;;;;;5041227;28;20623;-89
2021/03/02 12:23:04;;;;;;;11.90;10.60;;;13.80;53.80;;;;;;5063870;28;20631;-89
2021/03/02 12:25:32;;;;;;;15.17;10.57;;;13.90;53.20;;;;;;5057738;28;20633;-90
2021/03/02 12:27:59;;;;;;;12.87;10.57;;;13.90;53.90;;;;;;5058655;28;20652;-89
2021/03/02 12:30:26;;;;;;;13.23;10.30;;;14.00;53.20;;;;;;5056722;28;20638;-90
2021/03/02 12:32:53;;;;;;;12.67;10.83;;;13.80;53.10;;;;;;5055992;28;20639;-90
2021/03/02 12:35:24;;;;;;;13.17;11.77;;;13.70;53.10;;;;;;5041266;28;20661;-90
2021/03/02 12:37:55;;;;;;;13.27;10.13;;;13.70;53.60;;;;;;5059484;28;20608;-89
2021/03/02 12:40:24;;;;;;;14.93;10.40;;;13.90;53.10;;;;;;5057145;28;20969;-89
2021/03/02 12:42:53;;;;;;;14.50;11.07;;;14.10;53.60;;;;;;5055218;28;20735;-90
2021/03/02 12:45:22;;;;;;;18.17;10.90;;;14.10;52.60;;;;;;5058028;28;20621;-90
2021/03/02 12:47:53;;;;;;;15.20;11.37;;;14.00;51.90;;;;;;5038882;28;20650;-89
2021/03/02 12:50:23;;;;;;;13.13;10.73;;;14.10;51.90;;;;;;5051570;28;21161;-90
2021/03/02 12:52:49;;;;;;;17.23;11.77;;;14.40;52.50;;;;;;5056207;28;20731;-89